createdAt,value
2018-03-01T00:02:23.146Z,43.41
2018-03-01T00:04:51.446Z,44.38
2018-03-01T00:07:19.755Z,43.46
2018-03-01T00:09:48.564Z,43.40
2018-03-01T00:12:16.875Z,43.61
2018-03-01T00:14:45.181Z,43.38
2018-03-01T00:17:13.483Z,43.14
2018-03-01T00:19:41.756Z,43.51
2018-03-01T00:22:10.056Z,43.64
2018-03-01T00:24:38.332Z,43.75
2018-03-01T00:27:06.663Z,43.74
2018-03-01T00:29:34.916Z,43.93
2018-03-01T00:32:03.215Z,43.45
2018-03-01T00:34:31.491Z,43.98
2018-03-01T00:36:59.800Z,44.17
2018-03-01T00:39:28.106Z,43.50
2018-03-01T00:41:56.423Z,43.67
2018-03-01T00:44:24.703Z,43.73
2018-03-01T00:46:53.012Z,43.95
2018-03-01T00:49:21.312Z,43.77
2018-03-01T00:51:49.598Z,43.82
2018-03-01T00:54:17.905Z,43.70
2018-03-01T00:56:46.177Z,43.67
2018-03-01T00:59:14.475Z,43.64
2018-03-01T01:01:42.795Z,43.47
2018-03-01T01:04:11.112Z,43.70
2018-03-01T01:06:39.460Z,43.44
2018-03-01T01:09:07.772Z,43.64
2018-03-01T01:11:36.051Z,43.93
2018-03-01T01:14:05.081Z,44.08
2018-03-01T01:16:33.360Z,44.32
2018-03-01T01:19:01.653Z,44.14
2018-03-01T01:21:29.965Z,44.20
2018-03-01T01:23:58.254Z,44.38
2018-03-01T01:26:26.528Z,44.16
2018-03-01T01:28:54.799Z,44.23
2018-03-01T01:31:23.303Z,44.26
2018-03-01T01:33:51.577Z,44.11
2018-03-01T01:36:19.879Z,44.06
2018-03-01T01:38:48.146Z,43.89
2018-03-01T01:41:16.435Z,43.88
2018-03-01T01:43:44.725Z,44.43
2018-03-01T01:46:13.040Z,44.77
2018-03-01T01:48:41.333Z,44.56
2018-03-01T01:51:09.635Z,43.91
2018-03-01T01:53:37.931Z,44.07
2018-03-01T01:56:06.242Z,44.45
2018-03-01T01:58:34.545Z,45.22
2018-03-01T02:01:02.816Z,45.17
2018-03-01T02:03:31.487Z,44.63
2018-03-01T02:05:59.736Z,44.66
2018-03-01T02:08:28.079Z,44.86
2018-03-01T02:10:56.367Z,44.95
2018-03-01T02:13:24.686Z,45.02
2018-03-01T02:15:52.966Z,44.83
2018-03-01T02:18:21.260Z,45.21
2018-03-01T02:20:49.539Z,45.39
2018-03-01T02:23:17.856Z,45.32
2018-03-01T02:25:46.139Z,45.37
2018-03-01T02:28:14.445Z,45.29
2018-03-01T02:30:42.725Z,45.21
2018-03-01T02:33:11.014Z,44.96
2018-03-01T02:35:39.291Z,45.29
2018-03-01T02:38:07.607Z,45.19
2018-03-01T02:40:41.804Z,45.11
2018-03-01T02:43:10.080Z,45.13
2018-03-01T02:45:38.389Z,45.24
2018-03-01T02:48:06.675Z,44.71
2018-03-01T02:50:34.991Z,44.39
2018-03-01T02:53:03.268Z,44.54
2018-03-01T02:55:31.567Z,44.95
2018-03-01T02:57:59.832Z,45.25
2018-03-01T03:00:28.141Z,45.45
2018-03-01T03:02:56.400Z,44.91
2018-03-01T03:05:24.705Z,44.76
2018-03-01T03:07:53.004Z,44.91
2018-03-01T03:10:22.214Z,44.56
2018-03-01T03:12:50.598Z,44.69
2018-03-01T03:15:18.912Z,44.45
2018-03-01T03:17:47.697Z,45.02
2018-03-01T03:20:15.972Z,45.04
2018-03-01T03:22:44.272Z,45.44
2018-03-01T03:25:12.567Z,45.46
2018-03-01T03:27:40.863Z,45.49
2018-03-01T03:30:09.143Z,45.13
2018-03-01T03:32:37.443Z,44.92
2018-03-01T03:35:05.708Z,44.64
2018-03-01T03:37:34.459Z,44.96
2018-03-01T03:40:02.746Z,45.00
2018-03-01T03:42:31.035Z,45.13
2018-03-01T03:44:59.333Z,45.19
2018-03-01T03:47:27.645Z,45.04
2018-03-01T03:49:55.972Z,45.14
2018-03-01T03:52:24.264Z,44.89
2018-03-01T03:54:52.563Z,44.73
2018-03-01T03:57:20.861Z,44.67
2018-03-01T03:59:49.172Z,45.07
2018-03-01T04:02:17.448Z,44.44
2018-03-01T04:04:45.760Z,44.58
2018-03-01T04:07:14.045Z,43.81
2018-03-01T04:09:42.333Z,44.03
2018-03-01T04:12:10.633Z,44.36
2018-03-01T04:14:39.040Z,44.56
2018-03-01T04:17:07.307Z,45.44
2018-03-01T04:19:35.637Z,45.29
2018-03-01T04:22:04.779Z,44.81
2018-03-01T04:24:33.077Z,44.13
2018-03-01T04:27:01.367Z,43.95
2018-03-01T04:29:29.681Z,43.82
2018-03-01T04:31:57.962Z,44.29
2018-03-01T04:34:26.287Z,44.55
2018-03-01T04:36:54.593Z,44.47
2018-03-01T04:39:22.896Z,43.99
2018-03-01T04:41:51.193Z,43.50
2018-03-01T04:44:19.484Z,43.36
2018-03-01T04:46:47.779Z,43.36
2018-03-01T04:49:16.042Z,43.53
2018-03-01T04:51:44.311Z,43.27
2018-03-01T04:54:12.631Z,43.61
2018-03-01T04:56:40.904Z,43.68
2018-03-01T04:59:09.238Z,43.90
2018-03-01T05:01:37.519Z,44.29
2018-03-01T05:04:05.958Z,44.18
2018-03-01T05:06:34.189Z,44.25
2018-03-01T05:09:02.498Z,44.77
2018-03-01T05:11:30.774Z,44.58
2018-03-01T05:13:59.103Z,44.30
2018-03-01T05:16:27.380Z,44.68
2018-03-01T05:18:55.659Z,44.62
2018-03-01T05:21:23.965Z,44.06
2018-03-01T05:23:52.226Z,44.34
2018-03-01T05:26:20.544Z,44.13
2018-03-01T05:28:48.821Z,44.03
2018-03-01T05:31:17.164Z,44.31
2018-03-01T05:33:45.523Z,44.56
2018-03-01T05:36:13.833Z,44.79
2018-03-01T05:38:42.128Z,44.23
2018-03-01T05:41:10.410Z,44.39
2018-03-01T05:43:38.733Z,43.67
2018-03-01T05:46:07.023Z,44.12
2018-03-01T05:48:35.334Z,44.26
2018-03-01T05:51:03.589Z,44.22
2018-03-01T05:53:31.905Z,44.10
2018-03-01T05:56:00.198Z,44.12
2018-03-01T05:58:28.702Z,44.50
2018-03-01T06:00:57.014Z,44.18
2018-03-01T06:03:25.312Z,44.30
2018-03-01T06:05:53.580Z,43.92
2018-03-01T06:08:21.901Z,44.17
2018-03-01T06:10:50.187Z,44.06
2018-03-01T06:13:18.461Z,43.82
2018-03-01T06:15:46.777Z,43.79
2018-03-01T06:18:15.055Z,43.58
2018-03-01T06:20:43.369Z,43.89
2018-03-01T06:23:11.642Z,43.95
2018-03-01T06:25:39.975Z,44.04
2018-03-01T06:28:08.302Z,43.99
2018-03-01T06:30:36.586Z,44.18
2018-03-01T06:33:04.962Z,44.07
2018-03-01T06:35:33.229Z,44.08
2018-03-01T06:38:01.536Z,44.15
2018-03-01T06:40:29.794Z,44.00
2018-03-01T06:42:58.124Z,44.26
2018-03-01T06:45:26.382Z,43.78
2018-03-01T06:47:54.744Z,44.08
2018-03-01T06:50:23.044Z,44.04
2018-03-01T06:52:51.329Z,43.99
2018-03-01T06:55:19.681Z,44.08
2018-03-01T06:57:47.946Z,44.13
2018-03-01T07:00:16.247Z,44.25
2018-03-01T07:02:44.557Z,44.75
2018-03-01T07:05:12.900Z,44.89
2018-03-01T07:07:41.184Z,44.41
2018-03-01T07:10:09.509Z,44.37
2018-03-01T07:12:37.822Z,44.74
2018-03-01T07:15:06.122Z,45.54
2018-03-01T07:17:35.594Z,44.97
2018-03-01T07:20:05.384Z,44.72
2018-03-01T07:22:33.662Z,45.03
2018-03-01T07:25:01.933Z,44.39
2018-03-01T07:27:30.231Z,44.77
2018-03-01T07:29:58.521Z,44.44
2018-03-01T07:32:26.833Z,44.59
2018-03-01T07:34:55.106Z,44.20
2018-03-01T07:37:23.428Z,44.20
2018-03-01T07:39:51.708Z,43.89
2018-03-01T07:42:20.065Z,44.16
2018-03-01T07:44:48.382Z,44.02
2018-03-01T07:47:16.667Z,44.51
2018-03-01T07:49:44.972Z,44.62
2018-03-01T07:52:13.402Z,44.57
2018-03-01T07:54:41.896Z,44.84
2018-03-01T07:57:10.232Z,44.72
2018-03-01T07:59:38.527Z,43.75
2018-03-01T08:02:06.908Z,44.12
2018-03-01T08:04:35.222Z,43.67
2018-03-01T08:07:03.519Z,43.84
2018-03-01T08:09:31.787Z,43.54
2018-03-01T08:12:00.081Z,43.80
2018-03-01T08:14:28.615Z,43.49
2018-03-01T08:16:56.912Z,42.91
2018-03-01T08:19:25.256Z,42.59
2018-03-01T08:21:53.567Z,42.80
2018-03-01T08:24:21.817Z,42.37
2018-03-01T08:26:50.262Z,42.49
2018-03-01T08:29:18.620Z,42.44
2018-03-01T08:31:46.919Z,42.90
2018-03-01T08:34:15.221Z,42.82
2018-03-01T08:36:43.500Z,43.21
2018-03-01T08:39:11.852Z,42.83
2018-03-01T08:41:40.127Z,43.13
2018-03-01T08:44:08.443Z,42.89
2018-03-01T08:46:36.727Z,42.59
2018-03-01T08:49:05.075Z,43.14
2018-03-01T08:51:33.365Z,42.60
2018-03-01T08:54:01.652Z,42.08
2018-03-01T08:56:29.998Z,43.02
2018-03-01T08:58:58.352Z,41.78
2018-03-01T09:01:26.732Z,42.00
2018-03-01T09:03:55.887Z,41.77
2018-03-01T09:06:24.231Z,42.36
2018-03-01T09:08:52.634Z,42.40
2018-03-01T09:11:20.899Z,42.05
2018-03-01T09:13:49.188Z,42.04
2018-03-01T09:16:17.475Z,42.00
2018-03-01T09:18:45.740Z,41.78
2018-03-01T09:21:14.043Z,41.49
2018-03-01T09:23:42.508Z,41.59
2018-03-01T09:26:10.864Z,41.55
2018-03-01T09:28:39.166Z,42.32
2018-03-01T09:31:07.444Z,41.69
2018-03-01T09:33:35.770Z,42.07
2018-03-01T09:36:04.327Z,41.50
2018-03-01T09:38:32.636Z,40.66
2018-03-01T09:41:03.480Z,41.05
2018-03-01T09:43:31.884Z,41.57
2018-03-01T09:46:00.158Z,41.14
2018-03-01T09:48:29.670Z,41.06
2018-03-01T09:50:58.056Z,41.01
2018-03-01T09:56:05.572Z,39.95
2018-03-01T09:58:33.980Z,40.34
2018-03-01T10:01:02.278Z,39.13
2018-03-01T10:03:30.600Z,39.52
2018-03-01T10:05:58.966Z,39.74
2018-03-01T10:08:27.327Z,39.15
2018-03-01T10:10:55.612Z,39.38
2018-03-01T10:13:23.932Z,39.24
2018-03-01T10:15:54.662Z,39.39
2018-03-01T10:18:22.953Z,39.10
2018-03-01T10:20:51.828Z,39.49
2018-03-01T10:23:20.191Z,38.63
2018-03-01T10:25:48.649Z,38.37
2018-03-01T10:28:16.859Z,38.24
2018-03-01T10:30:47.948Z,38.25
2018-03-01T10:33:16.173Z,37.92
2018-03-01T10:35:44.673Z,38.04
2018-03-01T10:38:12.958Z,38.04
2018-03-01T10:40:41.348Z,37.68
2018-03-01T10:43:11.201Z,37.34
2018-03-01T10:45:39.491Z,36.99
2018-03-01T10:48:08.761Z,37.52
2018-03-01T10:50:37.156Z,37.73
2018-03-01T10:53:05.650Z,37.77
2018-03-01T10:55:33.926Z,37.59
2018-03-01T10:58:02.263Z,37.50
2018-03-01T11:00:36.309Z,37.33
2018-03-01T11:03:05.560Z,37.34
2018-03-01T11:05:37.347Z,36.88
2018-03-01T11:08:05.689Z,36.70
2018-03-01T11:10:33.995Z,36.80
2018-03-01T11:13:02.292Z,37.49
2018-03-01T11:15:30.639Z,36.45
2018-03-01T11:17:58.954Z,36.55
2018-03-01T11:20:27.250Z,36.00
2018-03-01T11:22:56.359Z,36.16
2018-03-01T11:25:24.762Z,37.08
2018-03-01T11:27:53.218Z,36.43
2018-03-01T11:30:21.582Z,36.35
2018-03-01T11:32:49.868Z,36.15
2018-03-01T11:35:18.244Z,36.33
2018-03-01T11:37:46.554Z,36.97
2018-03-01T11:40:16.347Z,36.20
2018-03-01T11:42:45.712Z,35.96
2018-03-01T11:45:14.039Z,35.90
2018-03-01T11:47:42.374Z,36.17
2018-03-01T11:50:11.058Z,36.42
2018-03-01T11:52:39.390Z,35.58
2018-03-01T11:55:07.675Z,35.88
2018-03-01T11:57:35.965Z,35.23
2018-03-01T12:00:05.845Z,35.36
2018-03-01T12:02:34.180Z,36.32
2018-03-01T12:05:02.513Z,37.26
2018-03-01T12:07:30.924Z,35.99
2018-03-01T12:09:59.846Z,35.28
2018-03-01T12:12:28.124Z,34.69
2018-03-01T12:14:57.708Z,34.97
2018-03-01T12:17:26.031Z,35.49
2018-03-01T12:19:54.333Z,35.16
2018-03-01T12:22:23.612Z,34.46
2018-03-01T12:24:51.935Z,34.49
2018-03-01T12:27:20.885Z,34.55
2018-03-01T12:29:49.176Z,33.94
2018-03-01T12:32:17.470Z,34.70
2018-03-01T12:34:47.070Z,34.23
2018-03-01T12:37:15.343Z,34.24
2018-03-01T12:39:43.604Z,33.39
2018-03-01T12:42:12.029Z,33.46
2018-03-01T12:44:40.367Z,33.34
2018-03-01T12:47:08.680Z,32.29
2018-03-01T12:49:37.673Z,32.76
2018-03-01T12:52:06.041Z,32.83
2018-03-01T12:54:34.688Z,32.49
2018-03-01T12:57:04.772Z,32.09
2018-03-01T12:59:33.023Z,31.99
2018-03-01T13:02:01.900Z,32.12
2018-03-01T13:04:31.072Z,32.06
2018-03-01T13:06:59.446Z,31.84
2018-03-01T13:09:28.722Z,32.11
2018-03-01T13:11:57.013Z,31.64
2018-03-01T13:14:26.668Z,31.49
2018-03-01T13:16:54.921Z,31.73
2018-03-01T13:19:23.232Z,32.97
2018-03-01T13:21:51.549Z,32.73
2018-03-01T13:24:19.875Z,31.74
2018-03-01T13:26:50.044Z,31.39
2018-03-01T13:29:18.380Z,31.56
2018-03-01T13:31:51.995Z,31.91
2018-03-01T13:37:23.392Z,31.67
2018-03-01T13:39:51.822Z,31.66
2018-03-01T13:42:31.092Z,31.82
2018-03-01T13:44:59.410Z,31.76
2018-03-01T13:47:33.850Z,32.08
2018-03-01T13:50:02.102Z,32.35
2018-03-01T13:52:30.416Z,31.88
2018-03-01T13:54:58.828Z,32.11
2018-03-01T13:57:27.335Z,31.90
2018-03-01T13:59:55.748Z,32.35
2018-03-01T14:02:24.368Z,32.60
2018-03-01T14:04:52.745Z,32.08
2018-03-01T14:07:26.688Z,31.45
2018-03-01T14:09:55.087Z,31.94
2018-03-01T14:15:26.448Z,32.03
2018-03-01T14:17:59.674Z,31.31
2018-03-01T14:20:34.744Z,31.87
2018-03-01T14:23:06.985Z,32.04
2018-03-01T14:25:38.756Z,32.50
2018-03-01T14:28:24.836Z,32.53
2018-03-01T14:30:53.190Z,31.25
2018-03-01T14:33:21.459Z,31.26
2018-03-01T14:35:49.780Z,31.37
2018-03-01T14:38:18.052Z,30.75
2018-03-01T14:40:46.536Z,30.55
2018-03-01T14:43:14.820Z,30.89
2018-03-01T14:45:43.158Z,31.27
2018-03-01T14:48:11.454Z,31.15
2018-03-01T14:50:39.761Z,31.37
2018-03-01T14:53:08.041Z,31.41
2018-03-01T14:55:36.512Z,31.43
2018-03-01T14:58:06.605Z,31.58
2018-03-01T15:00:34.947Z,31.78
2018-03-01T15:03:03.371Z,31.81
2018-03-01T15:05:31.630Z,31.70
2018-03-01T15:08:00.535Z,31.64
2018-03-01T15:10:28.856Z,31.92
2018-03-01T15:12:57.199Z,31.69
2018-03-01T15:15:25.522Z,31.89
2018-03-01T15:17:53.846Z,31.61
2018-03-01T15:20:22.219Z,32.02
2018-03-01T15:22:50.603Z,31.97
2018-03-01T15:25:20.506Z,31.76
2018-03-01T15:27:48.860Z,31.92
2018-03-01T15:30:17.164Z,31.88
2018-03-01T15:32:45.571Z,31.30
2018-03-01T15:35:13.900Z,31.72
2018-03-01T15:37:42.375Z,30.89
2018-03-01T15:40:10.648Z,30.98
2018-03-01T15:42:38.953Z,31.68
2018-03-01T15:45:07.238Z,31.35
2018-03-01T15:47:35.566Z,31.15
2018-03-01T15:50:04.356Z,31.42
2018-03-01T15:52:32.680Z,31.60
2018-03-01T15:55:01.019Z,31.69
2018-03-01T15:57:29.384Z,31.84
2018-03-01T15:59:57.673Z,31.50
2018-03-01T16:02:25.989Z,32.15
2018-03-01T16:04:54.300Z,32.01
2018-03-01T16:07:22.608Z,32.10
2018-03-01T16:09:51.210Z,31.73
2018-03-01T16:12:19.673Z,31.67
2018-03-01T16:14:48.000Z,31.80
2018-03-01T16:17:16.276Z,32.10
2018-03-01T16:19:44.669Z,32.38
2018-03-01T16:22:12.931Z,32.19
2018-03-01T16:24:41.283Z,32.41
2018-03-01T16:27:09.564Z,32.30
2018-03-01T16:29:37.935Z,33.72
2018-03-01T16:32:06.221Z,32.14
2018-03-01T16:34:34.653Z,31.78
2018-03-01T16:37:02.992Z,32.04
2018-03-01T16:39:31.333Z,31.92
2018-03-01T16:41:59.651Z,32.15
2018-03-01T16:44:28.570Z,32.41
2018-03-01T16:46:56.888Z,32.33
2018-03-01T16:49:25.231Z,32.51
2018-03-01T16:51:53.650Z,32.37
2018-03-01T16:54:22.011Z,32.59
2018-03-01T16:56:50.359Z,32.25
2018-03-01T16:59:18.614Z,32.83
2018-03-01T17:01:47.265Z,32.69
2018-03-01T17:04:15.606Z,33.05
2018-03-01T17:06:44.558Z,32.77
2018-03-01T17:09:13.141Z,32.76
2018-03-01T17:11:41.435Z,32.85
2018-03-01T17:14:09.788Z,32.56
2018-03-01T17:16:38.073Z,32.48
2018-03-01T17:19:06.360Z,32.33
2018-03-01T17:21:34.650Z,32.16
2018-03-01T17:24:03.638Z,32.31
2018-03-01T17:26:32.005Z,32.64
2018-03-01T17:29:00.279Z,32.81
2018-03-01T17:31:28.596Z,32.97
2018-03-01T17:33:56.945Z,32.81
2018-03-01T17:36:25.281Z,32.43
2018-03-01T17:38:53.584Z,32.62
2018-03-01T17:41:22.536Z,32.58
2018-03-01T17:43:50.895Z,33.12
2018-03-01T17:46:19.216Z,33.07
2018-03-01T17:48:47.512Z,32.95
2018-03-01T17:51:15.908Z,32.91
2018-03-01T17:53:44.232Z,33.02
2018-03-01T17:56:12.517Z,32.97
2018-03-01T17:58:40.815Z,33.08
2018-03-01T18:01:09.072Z,33.45
2018-03-01T18:03:37.461Z,33.13
2018-03-01T18:06:05.725Z,33.24
2018-03-01T18:08:34.041Z,33.17
2018-03-01T18:11:02.317Z,33.19
2018-03-01T18:13:31.416Z,33.12
2018-03-01T18:15:59.724Z,32.83
2018-03-01T18:18:28.009Z,33.05
2018-03-01T18:20:56.394Z,33.08
2018-03-01T18:23:24.683Z,33.50
2018-03-01T18:25:53.061Z,33.27
2018-03-01T18:28:21.338Z,33.12
2018-03-01T18:30:49.856Z,33.18
2018-03-01T18:33:18.177Z,33.39
2018-03-01T18:35:46.478Z,33.26
2018-03-01T18:38:14.765Z,33.39
2018-03-01T18:40:43.074Z,33.18
2018-03-01T18:43:11.340Z,33.37
2018-03-01T18:45:39.733Z,33.17
2018-03-01T18:48:08.063Z,33.24
2018-03-01T18:50:36.357Z,33.56
2018-03-01T18:53:05.008Z,33.66
2018-03-01T18:55:33.836Z,33.81
2018-03-01T18:58:02.134Z,33.74
2018-03-01T19:00:30.427Z,33.70
2018-03-01T19:02:59.063Z,34.36
2018-03-01T19:05:27.332Z,34.37
2018-03-01T19:07:55.655Z,34.02
2018-03-01T19:10:23.973Z,34.24
2018-03-01T19:12:52.263Z,34.38
2018-03-01T19:15:20.532Z,34.50
2018-03-01T19:17:48.833Z,34.35
2018-03-01T19:20:17.154Z,34.42
2018-03-01T19:22:46.352Z,34.54
2018-03-01T19:25:14.621Z,34.84
2018-03-01T19:27:42.953Z,34.67
2018-03-01T19:30:11.208Z,35.11
2018-03-01T19:32:39.504Z,34.71
2018-03-01T19:35:08.077Z,34.71
2018-03-01T19:37:36.364Z,34.79
2018-03-01T19:40:05.273Z,34.79
2018-03-01T19:42:33.572Z,34.80
2018-03-01T19:45:01.904Z,35.10
2018-03-01T19:47:30.162Z,34.91
2018-03-01T19:49:58.508Z,34.73
2018-03-01T19:52:26.836Z,34.82
2018-03-01T19:54:55.209Z,35.16
2018-03-01T19:57:23.524Z,35.34
2018-03-01T19:59:51.814Z,35.52
2018-03-01T20:02:20.108Z,35.51
2018-03-01T20:04:48.478Z,35.21
2018-03-01T20:07:16.726Z,35.68
2018-03-01T20:09:45.084Z,35.36
2018-03-01T20:12:18.951Z,35.47
2018-03-01T20:14:48.003Z,35.91
2018-03-01T20:17:24.478Z,35.89
2018-03-01T20:19:52.771Z,35.74
2018-03-01T20:22:21.114Z,35.87
2018-03-01T20:24:49.368Z,35.94
2018-03-01T20:27:17.677Z,36.10
2018-03-01T20:29:45.957Z,36.41
2018-03-01T20:32:14.308Z,36.72
2018-03-01T20:34:42.591Z,36.42
2018-03-01T20:37:10.878Z,36.35
2018-03-01T20:39:39.186Z,36.35
2018-03-01T20:42:07.505Z,36.84
2018-03-01T20:44:35.808Z,36.83
2018-03-01T20:47:04.112Z,36.77
2018-03-01T20:49:32.421Z,36.82
2018-03-01T20:52:01.005Z,37.03
2018-03-01T20:54:29.282Z,37.21
2018-03-01T20:56:57.648Z,37.04
2018-03-01T20:59:25.936Z,37.24
2018-03-01T21:01:56.935Z,37.09
2018-03-01T21:04:25.257Z,37.25
2018-03-01T21:06:53.535Z,37.56
2018-03-01T21:09:21.948Z,37.35
2018-03-01T21:11:50.246Z,37.79
2018-03-01T21:14:18.544Z,37.49
2018-03-01T21:16:46.836Z,37.40
2018-03-01T21:19:15.136Z,37.08
2018-03-01T21:21:43.461Z,37.46
2018-03-01T21:24:11.748Z,37.51
2018-03-01T21:26:40.107Z,37.61
2018-03-01T21:29:08.395Z,37.60
2018-03-01T21:31:36.723Z,37.55
2018-03-01T21:34:05.105Z,37.40
2018-03-01T21:36:33.418Z,37.43
2018-03-01T21:39:02.054Z,37.41
2018-03-01T21:41:30.346Z,37.57
2018-03-01T21:43:58.637Z,37.44
2018-03-01T21:46:26.928Z,37.13
2018-03-01T21:48:55.251Z,36.71
2018-03-01T21:51:23.503Z,37.67
2018-03-01T21:53:51.824Z,37.70
2018-03-01T21:56:20.103Z,37.84
2018-03-01T21:58:48.409Z,38.24
2018-03-01T22:01:16.689Z,38.08
2018-03-01T22:03:45.002Z,37.65
2018-03-01T22:06:13.294Z,38.09
2018-03-01T22:08:41.634Z,38.12
2018-03-01T22:11:09.940Z,37.96
2018-03-01T22:13:38.332Z,38.03
2018-03-01T22:16:06.625Z,37.90
2018-03-01T22:18:34.988Z,37.98
2018-03-01T22:21:03.324Z,37.83
2018-03-01T22:23:31.588Z,38.19
2018-03-01T22:25:59.897Z,38.25
2018-03-01T22:28:28.191Z,38.05
2018-03-01T22:30:57.983Z,38.10
2018-03-01T22:33:26.289Z,38.55
2018-03-01T22:35:54.653Z,38.73
2018-03-01T22:38:22.948Z,38.09
2018-03-01T22:40:51.245Z,37.98
2018-03-01T22:43:19.532Z,38.38
2018-03-01T22:45:47.838Z,38.59
2018-03-01T22:48:16.125Z,38.35
2018-03-01T22:50:44.518Z,38.24
2018-03-01T22:53:12.823Z,37.85
2018-03-01T22:55:41.121Z,37.81
2018-03-01T22:58:09.433Z,37.99
2018-03-01T23:00:49.423Z,38.16
2018-03-01T23:03:17.736Z,38.12
2018-03-01T23:05:46.036Z,38.42
2018-03-01T23:08:15.169Z,38.45
2018-03-01T23:10:43.461Z,38.38
2018-03-01T23:13:11.767Z,38.75
2018-03-01T23:15:40.024Z,38.26
2018-03-01T23:18:08.344Z,38.95
2018-03-01T23:20:36.636Z,38.87
2018-03-01T23:23:04.907Z,39.02
2018-03-01T23:25:33.191Z,39.11
2018-03-01T23:28:01.487Z,39.17
2018-03-01T23:30:29.795Z,38.80
2018-03-01T23:32:58.067Z,38.76
2018-03-01T23:35:26.366Z,38.62
2018-03-01T23:37:54.645Z,38.55
2018-03-01T23:40:22.968Z,38.12
2018-03-01T23:42:51.546Z,38.41
2018-03-01T23:45:19.832Z,38.47
2018-03-01T23:47:48.115Z,38.60
2018-03-01T23:50:16.419Z,38.59
2018-03-01T23:52:44.717Z,38.69
2018-03-01T23:55:13.000Z,38.56
2018-03-01T23:57:41.292Z,39.06
